Falcon — WBE7134 — position and weather

sailwx.info

Track history (hours):
 
Tides and Currents Weather Stations Pressure Air Temp Water Temp Dewpoint Dewpoint Depression Visibility Wind Speed Wind Dir Waves Ship Positions

Falcon

Owner: Allied Transportation Company, NORFOLK, VA. More information available from US FCC via Universal Licensing System and Coast Guard Vessel Documentation Center.

Last reported at 2017-Nov-20 00:28 UTC. Time now 2017-Nov-23 18:40 UTC.
Position N 40°56' W 073°54'.

Length 37 m; draft 6 m.

Type: Tug. MMSI: 366976720.

Date/timePositionNaut miles runAvg speedWind from/ knotsBaromVisibWave heightAir tempDewpointWater temp
2017-Nov-20 00:28N 40°56' W 073°54'0 0.0
2017-Nov-19 23:58N 40°56' W 073°54'0 0.0
2017-Nov-19 23:25N 40°56' W 073°54'0 0.0
2017-Nov-19 22:58N 40°56' W 073°54'0 0.0
2017-Nov-19 22:30N 40°56' W 073°54'4 8.8
2017-Nov-19 22:00N 40°52' W 073°57'4 8.9
2017-Nov-19 21:30N 40°48' W 073°59'4 8.7
2017-Nov-19 21:00N 40°44' W 074°01'4 8.7
2017-Nov-19 20:30N 40°39' W 074°03'4 7.9
2017-Nov-19 20:00N 40°39' W 074°08'3 5.8
2017-Nov-19 19:30N 40°38' W 074°12'0 0.0
2017-Nov-19 19:00N 40°38' W 074°12'0 0.0
2017-Nov-19 18:30N 40°38' W 074°12'0 0.0
2017-Nov-19 18:00N 40°38' W 074°12'0 0.0
2017-Nov-19 17:30N 40°38' W 074°12'0 0.0
2017-Nov-19 17:00N 40°38' W 074°12'0 0.0
2017-Nov-19 16:30N 40°38' W 074°12'0 0.0
2017-Nov-19 16:00N 40°38' W 074°12'0 0.0
2017-Nov-19 15:30N 40°38' W 074°12'0 0.0
2017-Nov-19 15:00N 40°38' W 074°12'0 0.0
2017-Nov-19 14:30N 40°38' W 074°12'0 0.0
2017-Nov-19 14:00N 40°38' W 074°12'0 0.0
2017-Nov-19 13:30N 40°38' W 074°12'4 8.6
2017-Nov-19 13:00N 40°39' W 074°06'5 9.1
2017-Nov-19 12:30N 40°42' W 074°02'5 9.5
2017-Nov-19 12:00N 40°46' W 074°00'5 9.8
2017-Nov-19 11:30N 40°51' W 073°57'5 9.5
2017-Nov-19 10:59N 40°55' W 073°55'0 0.1
2017-Nov-19 07:36N 40°56' W 073°54'0 0.0
2017-Nov-18 15:30N 40°56' W 073°54'0 0.0
2017-Nov-18 14:57N 40°56' W 073°54'0 0.0
2017-Nov-18 14:30N 40°56' W 073°54'0 0.0
2017-Nov-18 14:00N 40°56' W 073°54'0 0.0
2017-Nov-18 13:30N 40°56' W 073°54'0 0.0
2017-Nov-18 12:57N 40°56' W 073°54'0 0.0
2017-Nov-18 12:27N 40°56' W 073°54'0 0.0
2017-Nov-18 12:00N 40°56' W 073°54'0 0.0
2017-Nov-18 11:30N 40°56' W 073°54'0 0.0
2017-Nov-18 11:00N 40°56' W 073°54'0 0.0
2017-Nov-18 10:30N 40°56' W 073°54'0 0.0
2017-Nov-18 10:00N 40°56' W 073°54'0 0.0
2017-Nov-18 09:24N 40°56' W 073°54'0 0.0
2017-Nov-18 09:00N 40°56' W 073°54'0 0.0
2017-Nov-18 08:30N 40°56' W 073°54'0 0.0
2017-Nov-18 07:54N 40°56' W 073°54'0 0.0
2017-Nov-18 07:24N 40°56' W 073°54'0 0.0
2017-Nov-18 07:00N 40°56' W 073°54'0 0.0
2017-Nov-18 06:30N 40°56' W 073°54'0 0.0
2017-Nov-18 06:00N 40°56' W 073°54'0 0.0
2017-Nov-18 05:30N 40°56' W 073°54'0 0.0
2017-Nov-18 04:57N 40°56' W 073°54'0 0.0
2017-Nov-18 04:30N 40°56' W 073°54'0 0.0
2017-Nov-18 04:00N 40°56' W 073°54'0 0.0
2017-Nov-18 03:27N 40°56' W 073°54'0 0.0
2017-Nov-18 03:00N 40°56' W 073°54'0 0.0
2017-Nov-18 02:30N 40°56' W 073°54'0 0.0
2017-Nov-18 02:00N 40°56' W 073°54'0 0.0
2017-Nov-18 01:27N 40°56' W 073°54'0 0.0
2017-Nov-18 00:57N 40°56' W 073°54'0 0.0
2017-Nov-18 00:30N 40°56' W 073°54'0 0.0
2017-Nov-18 00:00N 40°56' W 073°54'0 0.0
2017-Nov-17 23:30N 40°56' W 073°54'0 0.0
2017-Nov-17 22:57N 40°56' W 073°54'0 0.0
2017-Nov-17 22:27N 40°56' W 073°54'0 0.0
2017-Nov-17 21:57N 40°56' W 073°54'0 0.0
2017-Nov-17 21:27N 40°56' W 073°54'0 0.0
2017-Nov-17 21:00N 40°56' W 073°54'0 0.0
2017-Nov-17 20:30N 40°56' W 073°54'0 0.0
2017-Nov-17 20:00N 40°56' W 073°54'0 0.0
2017-Nov-17 19:30N 40°56' W 073°54'0 0.0
2017-Nov-17 19:00N 40°56' W 073°54'0 0.0
2017-Nov-17 18:28N 40°56' W 073°54'0 0.0
2017-Nov-17 17:58N 40°56' W 073°54'0 0.0
2017-Nov-17 17:22N 40°56' W 073°54'0 0.0
2017-Nov-17 16:58N 40°56' W 073°54'0 0.0
2017-Nov-17 16:22N 40°56' W 073°54'0 0.0
2017-Nov-17 15:55N 40°56' W 073°54'0 0.0
2017-Nov-17 15:28N 40°56' W 073°54'0 0.0
2017-Nov-17 14:58N 40°56' W 073°54'0 0.0
2017-Nov-17 14:25N 40°56' W 073°54'0 0.0
2017-Nov-17 13:55N 40°56' W 073°54'0 0.0
2017-Nov-17 13:28N 40°56' W 073°54'0 0.0
2017-Nov-17 12:58N 40°56' W 073°54'0 0.0
2017-Nov-17 12:28N 40°56' W 073°54'0 0.0
2017-Nov-17 11:55N 40°56' W 073°54'0 0.0
2017-Nov-17 11:28N 40°56' W 073°54'0 0.0
2017-Nov-17 10:58N 40°56' W 073°54'0 0.0
2017-Nov-17 10:28N 40°56' W 073°54'0 0.0
2017-Nov-17 09:58N 40°56' W 073°54'0 0.0
2017-Nov-17 09:28N 40°56' W 073°54'0 0.0
2017-Nov-17 08:58N 40°56' W 073°54'0 0.0
2017-Nov-17 08:28N 40°56' W 073°54'0 0.0
2017-Nov-17 08:00N 40°56' W 073°54'0 0.2
2017-Nov-17 07:30N 40°56' W 073°54'4 7.6
2017-Nov-17 07:00N 40°52' W 073°56'4 8.0
2017-Nov-17 06:30N 40°48' W 073°58'4 7.7
2017-Nov-17 06:00N 40°45' W 074°01'4 8.0
2017-Nov-17 05:30N 40°41' W 074°02'4 8.0
2017-Nov-17 05:01N 40°39' W 074°06'1 1.2
2017-Nov-17 04:28N 40°39' W 074°07'0 0.0
2017-Nov-17 03:58N 40°39' W 074°07'0 0.0
2017-Nov-17 03:28N 40°39' W 074°07'0 0.0
2017-Nov-17 02:58N 40°39' W 074°07'0 0.0
2017-Nov-17 02:28N 40°39' W 074°07'0 0.0
2017-Nov-17 01:58N 40°39' W 074°07'0 0.0
2017-Nov-17 01:28N 40°39' W 074°07'0 0.0
2017-Nov-17 00:58N 40°39' W 074°07'0 0.0
2017-Nov-17 00:25N 40°39' W 074°07'0 0.0
2017-Nov-16 23:58N 40°39' W 074°07'0 0.0
2017-Nov-16 23:28N 40°39' W 074°07'0 0.0
2017-Nov-16 22:58N 40°39' W 074°07'0 0.0
2017-Nov-16 22:28N 40°39' W 074°07'0 0.0
2017-Nov-16 21:58N 40°39' W 074°07'0 0.0
2017-Nov-16 21:28N 40°39' W 074°07'0 0.0
2017-Nov-16 20:58N 40°39' W 074°07'0 0.0
2017-Nov-16 20:22N 40°39' W 074°07'0 0.0
2017-Nov-16 19:58N 40°39' W 074°07'0 0.0
2017-Nov-16 19:28N 40°39' W 074°07'0 0.0
2017-Nov-16 18:58N 40°39' W 074°07'0 0.0
2017-Nov-16 18:28N 40°39' W 074°07'0 0.0
2017-Nov-16 17:58N 40°39' W 074°07'0 0.0
2017-Nov-16 17:28N 40°39' W 074°07'0 0.0
2017-Nov-16 16:58N 40°39' W 074°07'0 0.0
2017-Nov-16 16:28N 40°39' W 074°07'0 0.0
2017-Nov-16 15:58N 40°39' W 074°07'0 0.0
2017-Nov-16 15:28N 40°39' W 074°07'0 0.0
2017-Nov-16 14:58N 40°39' W 074°07'0 0.0
2017-Nov-16 14:28N 40°39' W 074°07'0 0.0
2017-Nov-16 13:58N 40°39' W 074°07'0 0.0
2017-Nov-16 13:28N 40°39' W 074°07'0 0.0
2017-Nov-16 12:58N 40°39' W 074°07'0 0.0
2017-Nov-16 12:28N 40°39' W 074°07'0 0.0
2017-Nov-16 11:58N 40°39' W 074°07'0 0.0
2017-Nov-16 11:28N 40°39' W 074°07'0 0.0
2017-Nov-16 10:58N 40°39' W 074°07'0 0.0
2017-Nov-16 10:28N 40°39' W 074°07'0 0.0
2017-Nov-16 09:58N 40°39' W 074°07'0 0.0
2017-Nov-16 09:28N 40°39' W 074°07'0 0.0
2017-Nov-16 08:58N 40°39' W 074°07'0 0.0
2017-Nov-16 08:28N 40°39' W 074°07'0 0.0
2017-Nov-16 07:58N 40°39' W 074°07'0 0.0
2017-Nov-16 07:28N 40°39' W 074°07'0 0.0
2017-Nov-16 06:58N 40°39' W 074°07'0 0.0
2017-Nov-16 06:28N 40°39' W 074°07'0 0.0
2017-Nov-16 05:58N 40°39' W 074°07'0 0.0
2017-Nov-16 05:28N 40°39' W 074°07'0 0.0
2017-Nov-16 04:58N 40°39' W 074°07'0 0.0
2017-Nov-16 04:28N 40°39' W 074°07'0 0.0
2017-Nov-16 03:58N 40°39' W 074°07'0 0.0
2017-Nov-16 03:28N 40°39' W 074°07'0 0.0
2017-Nov-16 02:58N 40°39' W 074°07'0 0.0
2017-Nov-16 02:28N 40°39' W 074°07'0 0.0
2017-Nov-16 01:55N 40°39' W 074°07'0 0.0
2017-Nov-16 01:28N 40°39' W 074°07'0 0.0
2017-Nov-16 00:58N 40°39' W 074°07'0 0.0
2017-Nov-16 00:28N 40°39' W 074°07'0 0.0
2017-Nov-15 23:58N 40°39' W 074°07'0 0.0
2017-Nov-15 23:28N 40°39' W 074°07'0 0.0
2017-Nov-15 22:55N 40°39' W 074°07'0 0.0
2017-Nov-15 22:22N 40°39' W 074°07'0 0.0
2017-Nov-15 21:58N 40°39' W 074°07'0 0.0
2017-Nov-15 21:28N 40°39' W 074°07'0 0.0
2017-Nov-15 20:55N 40°39' W 074°07'0 0.0
2017-Nov-15 20:28N 40°39' W 074°07'0 0.0
2017-Nov-15 19:58N 40°39' W 074°07'0 0.0
2017-Nov-15 19:25N 40°39' W 074°07'0 0.0
2017-Nov-15 18:58N 40°39' W 074°07'0 0.0
2017-Nov-15 18:28N 40°39' W 074°07'0 0.0
2017-Nov-15 17:58N 40°39' W 074°07'0 0.0
2017-Nov-15 17:28N 40°39' W 074°07'0 0.0
2017-Nov-15 16:58N 40°39' W 074°07'0 0.0
2017-Nov-15 16:28N 40°39' W 074°07'0 0.0
2017-Nov-15 15:58N 40°39' W 074°07'0 0.0
2017-Nov-15 15:28N 40°39' W 074°07'0 0.3
2017-Nov-15 15:01N 40°38' W 074°07'4 7.5
2017-Nov-15 14:30N 40°40' W 074°03'611.5
2017-Nov-15 14:00N 40°46' W 074°01'510.3
2017-Nov-15 13:30N 40°50' W 073°58'5 9.5
2017-Nov-15 12:59N 40°55' W 073°55'1 2.0
2017-Nov-15 12:30N 40°56' W 073°54'0 0.0
2017-Nov-15 12:00N 40°56' W 073°54'1 1.1
2017-Nov-15 11:30N 40°56' W 073°55'0 0.1
2017-Nov-15 11:00N 40°56' W 073°55'0 0.0
2017-Nov-15 10:30N 40°56' W 073°55'0 0.0
2017-Nov-15 10:00N 40°56' W 073°55'0 0.2
2017-Nov-15 09:16N 40°56' W 073°55'0 0.2
2017-Nov-15 08:58N 40°56' W 073°55'0 0.0
2017-Nov-15 08:30N 40°56' W 073°55'0 0.0
2017-Nov-15 08:01N 40°56' W 073°55'0 0.0
2017-Nov-15 07:30N 40°56' W 073°55'0 0.0
2017-Nov-15 06:58N 40°56' W 073°55'0 0.0
2017-Nov-15 06:30N 40°56' W 073°55'0 0.0
2017-Nov-15 06:00N 40°56' W 073°55'0 0.0
2017-Nov-15 05:30N 40°56' W 073°55'0 0.0
2017-Nov-15 05:00N 40°56' W 073°55'0 0.0
2017-Nov-15 04:30N 40°56' W 073°55'0 0.0
2017-Nov-15 03:57N 40°56' W 073°55'0 0.0
2017-Nov-15 03:30N 40°56' W 073°55'0 0.0
2017-Nov-15 03:00N 40°56' W 073°55'0 0.3
2017-Nov-15 02:30N 40°56' W 073°55'0 0.2
2017-Nov-15 02:00N 40°56' W 073°55'0 0.0
2017-Nov-15 01:24N 40°56' W 073°55'0 0.1
2017-Nov-15 01:00N 40°56' W 073°55'0 0.0
2017-Nov-15 00:31N 40°56' W 073°55'0 0.0
2017-Nov-14 23:21N 40°56' W 073°55'0 0.0
2017-Nov-14 22:54N 40°56' W 073°55'0 0.0
2017-Nov-14 22:18N 40°56' W 073°55'0 0.1
2017-Nov-14 22:00N 40°56' W 073°55'0 0.2
2017-Nov-14 21:21N 40°56' W 073°55'0 0.2
2017-Nov-14 20:54N 40°56' W 073°55'0 0.1
2017-Nov-14 20:31N 40°56' W 073°55'0 0.0
2017-Nov-14 20:00N 40°56' W 073°55'0 0.0
2017-Nov-14 19:30N 40°56' W 073°55'0 0.0
2017-Nov-14 19:00N 40°56' W 073°55'0 0.0
2017-Nov-14 18:30N 40°56' W 073°55'0 0.0
2017-Nov-14 18:00N 40°56' W 073°55'0 0.0
2017-Nov-14 17:30N 40°56' W 073°55'0 0.0
2017-Nov-14 17:00N 40°56' W 073°55'0 0.0
2017-Nov-14 16:30N 40°56' W 073°55'0 0.0
2017-Nov-14 16:00N 40°56' W 073°55'0 0.0
2017-Nov-14 15:30N 40°56' W 073°55'0 0.0
2017-Nov-14 14:57N 40°56' W 073°55'0 0.0
2017-Nov-14 14:27N 40°56' W 073°55'0 0.3
2017-Nov-14 13:45N 40°56' W 073°55'0 0.1
2017-Nov-14 13:30N 40°56' W 073°55'0 0.1
2017-Nov-14 13:00N 40°56' W 073°55'0 0.0
2017-Nov-14 12:30N 40°56' W 073°55'0 0.0
2017-Nov-14 12:00N 40°56' W 073°55'0 0.1
2017-Nov-14 11:27N 40°56' W 073°55'0 0.0
2017-Nov-14 11:00N 40°56' W 073°55'0 0.0
2017-Nov-14 10:27N 40°56' W 073°55'0 0.0
2017-Nov-14 09:54N 40°56' W 073°55'0 0.0
2017-Nov-14 09:30N 40°56' W 073°55'0 0.1
2017-Nov-14 09:00N 40°56' W 073°55'0 0.3
2017-Nov-14 08:30N 40°56' W 073°55'0 0.1
2017-Nov-14 08:00N 40°56' W 073°55'0 0.0
2017-Nov-14 07:30N 40°56' W 073°55'0 0.0
2017-Nov-14 07:00N 40°56' W 073°55'0 0.0
2017-Nov-14 06:30N 40°56' W 073°55'0 0.0
2017-Nov-14 06:00N 40°56' W 073°55'0 0.0
2017-Nov-14 05:30N 40°56' W 073°55'0 0.0
2017-Nov-14 05:00N 40°56' W 073°55'0 0.0
2017-Nov-14 04:30N 40°56' W 073°55'0 0.1
2017-Nov-14 03:57N 40°56' W 073°55'1 1.1
2017-Nov-14 03:28N 40°56' W 073°55'0 0.1
2017-Nov-14 03:01N 40°56' W 073°55'0 0.2
2017-Nov-14 02:21N 40°56' W 073°55'0 0.1
2017-Nov-14 01:57N 40°56' W 073°55'0 0.4
2017-Nov-14 01:28N 40°56' W 073°55'0 0.1
2017-Nov-14 01:00N 40°56' W 073°55'0 0.1
2017-Nov-14 00:31N 40°56' W 073°55'0 0.0
2017-Nov-13 23:58N 40°56' W 073°55'0 0.0
2017-Nov-13 23:31N 40°56' W 073°55'0 0.0
2017-Nov-13 22:54N 40°56' W 073°55'0 0.0
2017-Nov-13 22:27N 40°56' W 073°55'0 0.0
2017-Nov-13 01:53N 40°56' W 073°55'0 0.0
2017-Nov-13 01:29N 40°56' W 073°55'0 0.3
2017-Nov-13 00:59N 40°56' W 073°55'0 0.3
2017-Nov-13 00:29N 40°56' W 073°55'0 0.0
2017-Nov-12 23:59N 40°56' W 073°55'0 0.1
2017-Nov-12 23:29N 40°56' W 073°55'1 2.4
2017-Nov-12 22:59N 40°57' W 073°54'0 0.1
2017-Nov-12 22:30N 40°57' W 073°54'1 1.4
2017-Nov-12 22:00N 40°57' W 073°55'0 0.2
2017-Nov-12 21:30N 40°57' W 073°54'1 2.6
2017-Nov-12 21:00N 40°55' W 073°55'3 6.5
2017-Nov-12 20:30N 40°52' W 073°56'3 7.1
2017-Nov-12 20:00N 40°49' W 073°58'4 7.2
2017-Nov-12 19:30N 40°46' W 074°00'3 6.6
2017-Nov-12 19:00N 40°43' W 074°01'3 6.3
2017-Nov-12 18:30N 40°40' W 074°03'3 6.2
2017-Nov-12 18:00N 40°37' W 074°03'3 6.4
2017-Nov-12 17:30N 40°34' W 074°02'3 5.3
2017-Nov-12 17:00N 40°31' W 073°60'3 6.8
2017-Nov-12 16:30N 40°30' W 073°56'3 5.8
2017-Nov-12 15:58N 40°28' W 073°53'2 4.7
2017-Nov-12 15:29N 40°26' W 073°53'3 5.7
2017-Nov-12 15:00N 40°23' W 073°53'3 4.7
2017-Nov-12 14:17N 40°20' W 073°54'2 4.5
2017-Nov-12 13:49N 40°17' W 073°54'2 4.4
2017-Nov-12 13:27N 40°16' W 073°54'2 4.4
2017-Nov-12 13:00N 40°14' W 073°54'2 4.5
2017-Nov-12 12:30N 40°12' W 073°54'3 4.9
2017-Nov-12 11:49N 40°08' W 073°55'2 4.9
2017-Nov-12 11:26N 40°07' W 073°56'3 4.9
2017-Nov-12 10:47N 40°04' W 073°57'1 5.0
2017-Nov-12 10:30N 40°02' W 073°58'4 5.1
2017-Nov-12 09:46N 39°58' W 073°58'1 5.1
2017-Nov-12 09:29N 39°57' W 073°59'3 5.1
2017-Nov-12 08:53N 39°54' W 073°59'2 5.0
2017-Nov-12 08:30N 39°52' W 073°60'3 5.1
2017-Nov-12 08:00N 39°50' W 073°60'3 5.1
2017-Nov-12 07:30N 39°47' W 074°00'3 5.2
2017-Nov-12 06:59N 39°44' W 074°01'3 5.2
2017-Nov-12 06:29N 39°42' W 074°02'2 5.2
2017-Nov-12 06:00N 39°40' W 074°03'3 5.3
2017-Nov-12 05:30N 39°37' W 074°05'3 5.3
2017-Nov-12 04:57N 39°35' W 074°07'2 5.2
2017-Nov-12 04:30N 39°33' W 074°07'3 5.0
2017-Nov-12 04:00N 39°30' W 074°08'3 5.2
2017-Nov-12 03:29N 39°28' W 074°10'5 5.3
2017-Nov-12 02:30N 39°23' W 074°13'8 5.1
2017-Nov-12 00:58N 39°17' W 074°20'2 5.1
2017-Nov-12 00:30N 39°16' W 074°23'148 4.9
2017-Nov-10 18:06N 37°03' W 075°46'3 4.5
2017-Nov-10 17:29N 37°00' W 075°48'3 4.8
2017-Nov-10 16:51N 36°57' W 075°47'5 4.9
2017-Nov-10 15:53N 36°53' W 075°46'  
Track history (hours):
 
Tides and Currents Weather Stations Pressure Air Temp Water Temp Dewpoint Dewpoint Depression Visibility Wind Speed Wind Dir Waves Ship Positions

Falcon

Owner: Allied Transportation Company, NORFOLK, VA. More information available from US FCC via Universal Licensing System and Coast Guard Vessel Documentation Center.

Last reported at 2017-Nov-20 00:28 UTC. Time now 2017-Nov-23 18:40 UTC.
Position N 40°56' W 073°54'.

Length 37 m; draft 6 m.

Type: Tug. MMSI: 366976720.

Date/timePositionNaut miles runAvg speedWind from/ knotsBaromVisibWave heightAir tempDewpointWater temp
2017-Nov-20 00:28N 40°56' W 073°54'0 0.0
2017-Nov-19 23:58N 40°56' W 073°54'0 0.0
2017-Nov-19 23:25N 40°56' W 073°54'0 0.0
2017-Nov-19 22:58N 40°56' W 073°54'0 0.0
2017-Nov-19 22:30N 40°56' W 073°54'4 8.8
2017-Nov-19 22:00N 40°52' W 073°57'4 8.9
2017-Nov-19 21:30N 40°48' W 073°59'4 8.7
2017-Nov-19 21:00N 40°44' W 074°01'4 8.7
2017-Nov-19 20:30N 40°39' W 074°03'4 7.9
2017-Nov-19 20:00N 40°39' W 074°08'3 5.8
2017-Nov-19 19:30N 40°38' W 074°12'0 0.0
2017-Nov-19 19:00N 40°38' W 074°12'0 0.0
2017-Nov-19 18:30N 40°38' W 074°12'0 0.0
2017-Nov-19 18:00N 40°38' W 074°12'0 0.0
2017-Nov-19 17:30N 40°38' W 074°12'0 0.0
2017-Nov-19 17:00N 40°38' W 074°12'0 0.0
2017-Nov-19 16:30N 40°38' W 074°12'0 0.0
2017-Nov-19 16:00N 40°38' W 074°12'0 0.0
2017-Nov-19 15:30N 40°38' W 074°12'0 0.0
2017-Nov-19 15:00N 40°38' W 074°12'0 0.0
2017-Nov-19 14:30N 40°38' W 074°12'0 0.0
2017-Nov-19 14:00N 40°38' W 074°12'0 0.0
2017-Nov-19 13:30N 40°38' W 074°12'4 8.6
2017-Nov-19 13:00N 40°39' W 074°06'5 9.1
2017-Nov-19 12:30N 40°42' W 074°02'5 9.5
2017-Nov-19 12:00N 40°46' W 074°00'5 9.8
2017-Nov-19 11:30N 40°51' W 073°57'5 9.5
2017-Nov-19 10:59N 40°55' W 073°55'0 0.1
2017-Nov-19 07:36N 40°56' W 073°54'0 0.0
2017-Nov-18 15:30N 40°56' W 073°54'0 0.0
2017-Nov-18 14:57N 40°56' W 073°54'0 0.0
2017-Nov-18 14:30N 40°56' W 073°54'0 0.0
2017-Nov-18 14:00N 40°56' W 073°54'0 0.0
2017-Nov-18 13:30N 40°56' W 073°54'0 0.0
2017-Nov-18 12:57N 40°56' W 073°54'0 0.0
2017-Nov-18 12:27N 40°56' W 073°54'0 0.0
2017-Nov-18 12:00N 40°56' W 073°54'0 0.0
2017-Nov-18 11:30N 40°56' W 073°54'0 0.0
2017-Nov-18 11:00N 40°56' W 073°54'0 0.0
2017-Nov-18 10:30N 40°56' W 073°54'0 0.0
2017-Nov-18 10:00N 40°56' W 073°54'0 0.0
2017-Nov-18 09:24N 40°56' W 073°54'0 0.0
2017-Nov-18 09:00N 40°56' W 073°54'0 0.0
2017-Nov-18 08:30N 40°56' W 073°54'0 0.0
2017-Nov-18 07:54N 40°56' W 073°54'0 0.0
2017-Nov-18 07:24N 40°56' W 073°54'0 0.0
2017-Nov-18 07:00N 40°56' W 073°54'0 0.0
2017-Nov-18 06:30N 40°56' W 073°54'0 0.0
2017-Nov-18 06:00N 40°56' W 073°54'0 0.0
2017-Nov-18 05:30N 40°56' W 073°54'0 0.0
2017-Nov-18 04:57N 40°56' W 073°54'0 0.0
2017-Nov-18 04:30N 40°56' W 073°54'0 0.0
2017-Nov-18 04:00N 40°56' W 073°54'0 0.0
2017-Nov-18 03:27N 40°56' W 073°54'0 0.0
2017-Nov-18 03:00N 40°56' W 073°54'0 0.0
2017-Nov-18 02:30N 40°56' W 073°54'0 0.0
2017-Nov-18 02:00N 40°56' W 073°54'0 0.0
2017-Nov-18 01:27N 40°56' W 073°54'0 0.0
2017-Nov-18 00:57N 40°56' W 073°54'0 0.0
2017-Nov-18 00:30N 40°56' W 073°54'0 0.0
2017-Nov-18 00:00N 40°56' W 073°54'0 0.0
2017-Nov-17 23:30N 40°56' W 073°54'0 0.0
2017-Nov-17 22:57N 40°56' W 073°54'0 0.0
2017-Nov-17 22:27N 40°56' W 073°54'0 0.0
2017-Nov-17 21:57N 40°56' W 073°54'0 0.0
2017-Nov-17 21:27N 40°56' W 073°54'0 0.0
2017-Nov-17 21:00N 40°56' W 073°54'0 0.0
2017-Nov-17 20:30N 40°56' W 073°54'0 0.0
2017-Nov-17 20:00N 40°56' W 073°54'0 0.0
2017-Nov-17 19:30N 40°56' W 073°54'0 0.0
2017-Nov-17 19:00N 40°56' W 073°54'0 0.0
2017-Nov-17 18:28N 40°56' W 073°54'0 0.0
2017-Nov-17 17:58N 40°56' W 073°54'0 0.0
2017-Nov-17 17:22N 40°56' W 073°54'0 0.0
2017-Nov-17 16:58N 40°56' W 073°54'0 0.0
2017-Nov-17 16:22N 40°56' W 073°54'0 0.0
2017-Nov-17 15:55N 40°56' W 073°54'0 0.0
2017-Nov-17 15:28N 40°56' W 073°54'0 0.0
2017-Nov-17 14:58N 40°56' W 073°54'0 0.0
2017-Nov-17 14:25N 40°56' W 073°54'0 0.0
2017-Nov-17 13:55N 40°56' W 073°54'0 0.0
2017-Nov-17 13:28N 40°56' W 073°54'0 0.0
2017-Nov-17 12:58N 40°56' W 073°54'0 0.0
2017-Nov-17 12:28N 40°56' W 073°54'0 0.0
2017-Nov-17 11:55N 40°56' W 073°54'0 0.0
2017-Nov-17 11:28N 40°56' W 073°54'0 0.0
2017-Nov-17 10:58N 40°56' W 073°54'0 0.0
2017-Nov-17 10:28N 40°56' W 073°54'0 0.0
2017-Nov-17 09:58N 40°56' W 073°54'0 0.0
2017-Nov-17 09:28N 40°56' W 073°54'0 0.0
2017-Nov-17 08:58N 40°56' W 073°54'0 0.0
2017-Nov-17 08:28N 40°56' W 073°54'0 0.0
2017-Nov-17 08:00N 40°56' W 073°54'0 0.2
2017-Nov-17 07:30N 40°56' W 073°54'4 7.6
2017-Nov-17 07:00N 40°52' W 073°56'4 8.0
2017-Nov-17 06:30N 40°48' W 073°58'4 7.7
2017-Nov-17 06:00N 40°45' W 074°01'4 8.0
2017-Nov-17 05:30N 40°41' W 074°02'4 8.0
2017-Nov-17 05:01N 40°39' W 074°06'1 1.2
2017-Nov-17 04:28N 40°39' W 074°07'0 0.0
2017-Nov-17 03:58N 40°39' W 074°07'0 0.0
2017-Nov-17 03:28N 40°39' W 074°07'0 0.0
2017-Nov-17 02:58N 40°39' W 074°07'0 0.0
2017-Nov-17 02:28N 40°39' W 074°07'0 0.0
2017-Nov-17 01:58N 40°39' W 074°07'0 0.0
2017-Nov-17 01:28N 40°39' W 074°07'0 0.0
2017-Nov-17 00:58N 40°39' W 074°07'0 0.0
2017-Nov-17 00:25N 40°39' W 074°07'0 0.0
2017-Nov-16 23:58N 40°39' W 074°07'0 0.0
2017-Nov-16 23:28N 40°39' W 074°07'0 0.0
2017-Nov-16 22:58N 40°39' W 074°07'0 0.0
2017-Nov-16 22:28N 40°39' W 074°07'0 0.0
2017-Nov-16 21:58N 40°39' W 074°07'0 0.0
2017-Nov-16 21:28N 40°39' W 074°07'0 0.0
2017-Nov-16 20:58N 40°39' W 074°07'0 0.0
2017-Nov-16 20:22N 40°39' W 074°07'0 0.0
2017-Nov-16 19:58N 40°39' W 074°07'0 0.0
2017-Nov-16 19:28N 40°39' W 074°07'0 0.0
2017-Nov-16 18:58N 40°39' W 074°07'0 0.0
2017-Nov-16 18:28N 40°39' W 074°07'0 0.0
2017-Nov-16 17:58N 40°39' W 074°07'0 0.0
2017-Nov-16 17:28N 40°39' W 074°07'0 0.0
2017-Nov-16 16:58N 40°39' W 074°07'0 0.0
2017-Nov-16 16:28N 40°39' W 074°07'0 0.0
2017-Nov-16 15:58N 40°39' W 074°07'0 0.0
2017-Nov-16 15:28N 40°39' W 074°07'0 0.0
2017-Nov-16 14:58N 40°39' W 074°07'0 0.0
2017-Nov-16 14:28N 40°39' W 074°07'0 0.0
2017-Nov-16 13:58N 40°39' W 074°07'0 0.0
2017-Nov-16 13:28N 40°39' W 074°07'0 0.0
2017-Nov-16 12:58N 40°39' W 074°07'0 0.0
2017-Nov-16 12:28N 40°39' W 074°07'0 0.0
2017-Nov-16 11:58N 40°39' W 074°07'0 0.0
2017-Nov-16 11:28N 40°39' W 074°07'0 0.0
2017-Nov-16 10:58N 40°39' W 074°07'0 0.0
2017-Nov-16 10:28N 40°39' W 074°07'0 0.0
2017-Nov-16 09:58N 40°39' W 074°07'0 0.0
2017-Nov-16 09:28N 40°39' W 074°07'0 0.0
2017-Nov-16 08:58N 40°39' W 074°07'0 0.0
2017-Nov-16 08:28N 40°39' W 074°07'0 0.0
2017-Nov-16 07:58N 40°39' W 074°07'0 0.0
2017-Nov-16 07:28N 40°39' W 074°07'0 0.0
2017-Nov-16 06:58N 40°39' W 074°07'0 0.0
2017-Nov-16 06:28N 40°39' W 074°07'0 0.0
2017-Nov-16 05:58N 40°39' W 074°07'0 0.0
2017-Nov-16 05:28N 40°39' W 074°07'0 0.0
2017-Nov-16 04:58N 40°39' W 074°07'0 0.0
2017-Nov-16 04:28N 40°39' W 074°07'0 0.0
2017-Nov-16 03:58N 40°39' W 074°07'0 0.0
2017-Nov-16 03:28N 40°39' W 074°07'0 0.0
2017-Nov-16 02:58N 40°39' W 074°07'0 0.0
2017-Nov-16 02:28N 40°39' W 074°07'0 0.0
2017-Nov-16 01:55N 40°39' W 074°07'0 0.0
2017-Nov-16 01:28N 40°39' W 074°07'0 0.0
2017-Nov-16 00:58N 40°39' W 074°07'0 0.0
2017-Nov-16 00:28N 40°39' W 074°07'0 0.0
2017-Nov-15 23:58N 40°39' W 074°07'0 0.0
2017-Nov-15 23:28N 40°39' W 074°07'0 0.0
2017-Nov-15 22:55N 40°39' W 074°07'0 0.0
2017-Nov-15 22:22N 40°39' W 074°07'0 0.0
2017-Nov-15 21:58N 40°39' W 074°07'0 0.0
2017-Nov-15 21:28N 40°39' W 074°07'0 0.0
2017-Nov-15 20:55N 40°39' W 074°07'0 0.0
2017-Nov-15 20:28N 40°39' W 074°07'0 0.0
2017-Nov-15 19:58N 40°39' W 074°07'0 0.0
2017-Nov-15 19:25N 40°39' W 074°07'0 0.0
2017-Nov-15 18:58N 40°39' W 074°07'0 0.0
2017-Nov-15 18:28N 40°39' W 074°07'0 0.0
2017-Nov-15 17:58N 40°39' W 074°07'0 0.0
2017-Nov-15 17:28N 40°39' W 074°07'0 0.0
2017-Nov-15 16:58N 40°39' W 074°07'0 0.0
2017-Nov-15 16:28N 40°39' W 074°07'0 0.0
2017-Nov-15 15:58N 40°39' W 074°07'0 0.0
2017-Nov-15 15:28N 40°39' W 074°07'0 0.3
2017-Nov-15 15:01N 40°38' W 074°07'4 7.5
2017-Nov-15 14:30N 40°40' W 074°03'611.5
2017-Nov-15 14:00N 40°46' W 074°01'510.3
2017-Nov-15 13:30N 40°50' W 073°58'5 9.5
2017-Nov-15 12:59N 40°55' W 073°55'1 2.0
2017-Nov-15 12:30N 40°56' W 073°54'0 0.0
2017-Nov-15 12:00N 40°56' W 073°54'1 1.1
2017-Nov-15 11:30N 40°56' W 073°55'0 0.1
2017-Nov-15 11:00N 40°56' W 073°55'0 0.0
2017-Nov-15 10:30N 40°56' W 073°55'0 0.0
2017-Nov-15 10:00N 40°56' W 073°55'0 0.2
2017-Nov-15 09:16N 40°56' W 073°55'0 0.2
2017-Nov-15 08:58N 40°56' W 073°55'0 0.0
2017-Nov-15 08:30N 40°56' W 073°55'0 0.0
2017-Nov-15 08:01N 40°56' W 073°55'0 0.0
2017-Nov-15 07:30N 40°56' W 073°55'0 0.0
2017-Nov-15 06:58N 40°56' W 073°55'0 0.0
2017-Nov-15 06:30N 40°56' W 073°55'0 0.0
2017-Nov-15 06:00N 40°56' W 073°55'0 0.0
2017-Nov-15 05:30N 40°56' W 073°55'0 0.0
2017-Nov-15 05:00N 40°56' W 073°55'0 0.0
2017-Nov-15 04:30N 40°56' W 073°55'0 0.0
2017-Nov-15 03:57N 40°56' W 073°55'0 0.0
2017-Nov-15 03:30N 40°56' W 073°55'0 0.0
2017-Nov-15 03:00N 40°56' W 073°55'0 0.3
2017-Nov-15 02:30N 40°56' W 073°55'0 0.2
2017-Nov-15 02:00N 40°56' W 073°55'0 0.0
2017-Nov-15 01:24N 40°56' W 073°55'0 0.1
2017-Nov-15 01:00N 40°56' W 073°55'0 0.0
2017-Nov-15 00:31N 40°56' W 073°55'0 0.0
2017-Nov-14 23:21N 40°56' W 073°55'0 0.0
2017-Nov-14 22:54N 40°56' W 073°55'0 0.0
2017-Nov-14 22:18N 40°56' W 073°55'0 0.1
2017-Nov-14 22:00N 40°56' W 073°55'0 0.2
2017-Nov-14 21:21N 40°56' W 073°55'0 0.2
2017-Nov-14 20:54N 40°56' W 073°55'0 0.1
2017-Nov-14 20:31N 40°56' W 073°55'0 0.0
2017-Nov-14 20:00N 40°56' W 073°55'0 0.0
2017-Nov-14 19:30N 40°56' W 073°55'0 0.0
2017-Nov-14 19:00N 40°56' W 073°55'0 0.0
2017-Nov-14 18:30N 40°56' W 073°55'0 0.0
2017-Nov-14 18:00N 40°56' W 073°55'0 0.0
2017-Nov-14 17:30N 40°56' W 073°55'0 0.0
2017-Nov-14 17:00N 40°56' W 073°55'0 0.0
2017-Nov-14 16:30N 40°56' W 073°55'0 0.0
2017-Nov-14 16:00N 40°56' W 073°55'0 0.0
2017-Nov-14 15:30N 40°56' W 073°55'0 0.0
2017-Nov-14 14:57N 40°56' W 073°55'0 0.0
2017-Nov-14 14:27N 40°56' W 073°55'0 0.3
2017-Nov-14 13:45N 40°56' W 073°55'0 0.1
2017-Nov-14 13:30N 40°56' W 073°55'0 0.1
2017-Nov-14 13:00N 40°56' W 073°55'0 0.0
2017-Nov-14 12:30N 40°56' W 073°55'0 0.0
2017-Nov-14 12:00N 40°56' W 073°55'0 0.1
2017-Nov-14 11:27N 40°56' W 073°55'0 0.0
2017-Nov-14 11:00N 40°56' W 073°55'0 0.0
2017-Nov-14 10:27N 40°56' W 073°55'0 0.0
2017-Nov-14 09:54N 40°56' W 073°55'0 0.0
2017-Nov-14 09:30N 40°56' W 073°55'0 0.1
2017-Nov-14 09:00N 40°56' W 073°55'0 0.3
2017-Nov-14 08:30N 40°56' W 073°55'0 0.1
2017-Nov-14 08:00N 40°56' W 073°55'0 0.0
2017-Nov-14 07:30N 40°56' W 073°55'0 0.0
2017-Nov-14 07:00N 40°56' W 073°55'0 0.0
2017-Nov-14 06:30N 40°56' W 073°55'0 0.0
2017-Nov-14 06:00N 40°56' W 073°55'0 0.0
2017-Nov-14 05:30N 40°56' W 073°55'0 0.0
2017-Nov-14 05:00N 40°56' W 073°55'0 0.0
2017-Nov-14 04:30N 40°56' W 073°55'0 0.1
2017-Nov-14 03:57N 40°56' W 073°55'1 1.1
2017-Nov-14 03:28N 40°56' W 073°55'0 0.1
2017-Nov-14 03:01N 40°56' W 073°55'0 0.2
2017-Nov-14 02:21N 40°56' W 073°55'0 0.1
2017-Nov-14 01:57N 40°56' W 073°55'0 0.4
2017-Nov-14 01:28N 40°56' W 073°55'0 0.1
2017-Nov-14 01:00N 40°56' W 073°55'0 0.1
2017-Nov-14 00:31N 40°56' W 073°55'0 0.0
2017-Nov-13 23:58N 40°56' W 073°55'0 0.0
2017-Nov-13 23:31N 40°56' W 073°55'0 0.0
2017-Nov-13 22:54N 40°56' W 073°55'0 0.0
2017-Nov-13 22:27N 40°56' W 073°55'0 0.0
2017-Nov-13 01:53N 40°56' W 073°55'0 0.0
2017-Nov-13 01:29N 40°56' W 073°55'0 0.3
2017-Nov-13 00:59N 40°56' W 073°55'0 0.3
2017-Nov-13 00:29N 40°56' W 073°55'0 0.0
2017-Nov-12 23:59N 40°56' W 073°55'0 0.1
2017-Nov-12 23:29N 40°56' W 073°55'1 2.4
2017-Nov-12 22:59N 40°57' W 073°54'0 0.1
2017-Nov-12 22:30N 40°57' W 073°54'1 1.4
2017-Nov-12 22:00N 40°57' W 073°55'0 0.2
2017-Nov-12 21:30N 40°57' W 073°54'1 2.6
2017-Nov-12 21:00N 40°55' W 073°55'3 6.5
2017-Nov-12 20:30N 40°52' W 073°56'3 7.1
2017-Nov-12 20:00N 40°49' W 073°58'4 7.2
2017-Nov-12 19:30N 40°46' W 074°00'3 6.6
2017-Nov-12 19:00N 40°43' W 074°01'3 6.3
2017-Nov-12 18:30N 40°40' W 074°03'3 6.2
2017-Nov-12 18:00N 40°37' W 074°03'3 6.4
2017-Nov-12 17:30N 40°34' W 074°02'3 5.3
2017-Nov-12 17:00N 40°31' W 073°60'3 6.8
2017-Nov-12 16:30N 40°30' W 073°56'3 5.8
2017-Nov-12 15:58N 40°28' W 073°53'2 4.7
2017-Nov-12 15:29N 40°26' W 073°53'3 5.7
2017-Nov-12 15:00N 40°23' W 073°53'3 4.7
2017-Nov-12 14:17N 40°20' W 073°54'2 4.5
2017-Nov-12 13:49N 40°17' W 073°54'2 4.4
2017-Nov-12 13:27N 40°16' W 073°54'2 4.4
2017-Nov-12 13:00N 40°14' W 073°54'2 4.5
2017-Nov-12 12:30N 40°12' W 073°54'3 4.9
2017-Nov-12 11:49N 40°08' W 073°55'2 4.9
2017-Nov-12 11:26N 40°07' W 073°56'3 4.9
2017-Nov-12 10:47N 40°04' W 073°57'1 5.0
2017-Nov-12 10:30N 40°02' W 073°58'4 5.1
2017-Nov-12 09:46N 39°58' W 073°58'1 5.1
2017-Nov-12 09:29N 39°57' W 073°59'3 5.1
2017-Nov-12 08:53N 39°54' W 073°59'2 5.0
2017-Nov-12 08:30N 39°52' W 073°60'3 5.1
2017-Nov-12 08:00N 39°50' W 073°60'3 5.1
2017-Nov-12 07:30N 39°47' W 074°00'3 5.2
2017-Nov-12 06:59N 39°44' W 074°01'3 5.2
2017-Nov-12 06:29N 39°42' W 074°02'2 5.2
2017-Nov-12 06:00N 39°40' W 074°03'3 5.3
2017-Nov-12 05:30N 39°37' W 074°05'3 5.3
2017-Nov-12 04:57N 39°35' W 074°07'2 5.2
2017-Nov-12 04:30N 39°33' W 074°07'3 5.0
2017-Nov-12 04:00N 39°30' W 074°08'3 5.2
2017-Nov-12 03:29N 39°28' W 074°10'5 5.3
2017-Nov-12 02:30N 39°23' W 074°13'8 5.1
2017-Nov-12 00:58N 39°17' W 074°20'2 5.1
2017-Nov-12 00:30N 39°16' W 074°23'148 4.9
2017-Nov-10 18:06N 37°03' W 075°46'3 4.5
2017-Nov-10 17:29N 37°00' W 075°48'3 4.8
2017-Nov-10 16:51N 36°57' W 075°47'5 4.9
2017-Nov-10 15:53N 36°53' W 075°46'  

Dump ship's entire track history